Time;durP1;ratioP1;P1;durP2;ratioP2;P2;SDS_P1;SDS_P2;PMS_P1;PMS_P2;Temp;Humidity;BMP_temperature;BMP_pressure;BME280_temperature;BME280_humidity;BME280_pressure;Samples;Min_cycle;Max_cycle;Signal;HPM_P1;HPM_P2
2023/12/04 00:01:36;;;;;;;15.93;5.53;;;6.70;95.00;;;;;;7385509;19;20020;-73
2023/12/04 00:04:05;;;;;;;9.60;5.40;;;6.70;95.20;;;;;;7384048;19;20279;-74
2023/12/04 00:06:33;;;;;;;7.97;4.53;;;6.70;94.80;;;;;;7405793;19;20275;-74
2023/12/04 00:09:02;;;;;;;9.20;5.03;;;6.70;94.70;;;;;;7381432;19;20006;-73
2023/12/04 00:11:33;;;;;;;9.20;5.30;;;6.70;94.40;;;;;;7384047;19;20006;-73
2023/12/04 00:14:02;;;;;;;10.63;4.93;;;6.70;94.40;;;;;;7384202;19;20028;-72
2023/12/04 00:16:31;;;;;;;7.93;4.45;;;6.70;94.40;;;;;;7384470;19;20245;-73
2023/12/04 00:18:59;;;;;;;10.57;5.00;;;6.80;94.50;;;;;;7386163;19;20027;-73
2023/12/04 00:21:28;;;;;;;12.48;5.13;;;6.70;94.30;;;;;;7408708;19;20015;-73
2023/12/04 00:23:56;;;;;;;11.95;5.22;;;6.70;94.40;;;;;;7385682;19;20337;-74
2023/12/04 00:26:25;;;;;;;10.10;5.20;;;6.80;94.60;;;;;;7384380;19;20023;-73
2023/12/04 00:28:56;;;;;;;11.88;5.68;;;6.80;94.40;;;;;;7384603;19;20019;-73
2023/12/04 00:31:25;;;;;;;10.52;4.80;;;6.80;94.50;;;;;;7384015;19;20058;-74
2023/12/04 00:33:51;;;;;;;9.15;4.80;;;6.80;94.30;;;;;;7394800;19;20011;-74
2023/12/04 00:36:20;;;;;;;9.20;4.32;;;6.80;94.50;;;;;;7407201;19;20013;-73
2023/12/04 00:38:49;;;;;;;11.55;4.72;;;6.80;94.60;;;;;;7382847;19;20011;-73
2023/12/04 00:41:18;;;;;;;9.15;4.43;;;6.80;94.50;;;;;;7382249;19;20024;-73
2023/12/04 00:43:46;;;;;;;9.32;4.72;;;6.80;94.70;;;;;;7384899;19;20059;-74
2023/12/04 00:46:18;;;;;;;12.40;5.10;;;6.80;94.70;;;;;;7388436;19;20024;-73
2023/12/04 00:48:46;;;;;;;11.98;4.72;;;6.80;94.60;;;;;;7409773;19;20011;-73
2023/12/04 00:51:15;;;;;;;11.27;5.30;;;6.90;94.60;;;;;;7388070;19;20014;-73
2023/12/04 00:53:45;;;;;;;11.32;4.97;;;6.90;94.60;;;;;;7387544;19;20010;-73
2023/12/04 00:56:14;;;;;;;6.60;3.90;;;6.90;94.60;;;;;;7390160;19;20035;-73
2023/12/04 00:58:42;;;;;;;9.00;4.88;;;6.90;94.60;;;;;;7383273;19;20062;-73
2023/12/04 01:01:11;;;;;;;12.63;4.65;;;6.90;94.70;;;;;;7385161;19;20032;-73
2023/12/04 01:03:43;;;;;;;12.40;5.15;;;6.90;94.60;;;;;;7406974;19;20014;-72
2023/12/04 01:06:23;;;;;;;8.77;3.85;;;6.90;94.70;;;;;;7382754;19;20023;-73
2023/12/04 01:08:52;;;;;;;12.68;4.45;;;6.90;94.70;;;;;;7379778;19;20003;-74
2023/12/04 01:11:21;;;;;;;7.93;4.18;;;6.90;94.60;;;;;;7381638;19;20354;-73
2023/12/04 01:13:51;;;;;;;11.32;4.72;;;6.90;94.80;;;;;;7382338;19;20030;-73
2023/12/04 01:16:20;;;;;;;10.88;4.38;;;7.00;94.60;;;;;;7381309;19;20051;-73
2023/12/04 01:22:02;;;;;;;10.27;4.20;;;7.00;94.50;;;;;;7277136;19;2004612;-73
2023/12/04 01:24:31;;;;;;;6.90;4.18;;;6.90;94.70;;;;;;7406531;19;20010;-74
2023/12/04 01:26:59;;;;;;;7.85;3.97;;;7.00;94.80;;;;;;7382579;19;20418;-72
2023/12/04 01:29:28;;;;;;;6.93;3.85;;;7.00;94.70;;;;;;7380860;19;20102;-73
2023/12/04 01:31:57;;;;;;;9.20;4.35;;;7.00;94.60;;;;;;7382049;19;20131;-72
2023/12/04 01:34:26;;;;;;;7.22;4.00;;;6.90;94.20;;;;;;7382323;19;20013;-73
2023/12/04 01:36:56;;;;;;;9.95;4.40;;;7.00;94.30;;;;;;7386322;19;20015;-73
2023/12/04 01:39:27;;;;;;;8.77;4.85;;;7.00;94.50;;;;;;7407100;19;20046;-73
2023/12/04 01:41:56;;;;;;;9.52;4.25;;;7.00;94.50;;;;;;7382916;19;20010;-73
2023/12/04 01:44:25;;;;;;;9.15;4.45;;;7.10;94.40;;;;;;7383185;19;20287;-73
2023/12/04 01:46:53;;;;;;;9.73;4.35;;;7.00;94.40;;;;;;7381100;19;20365;-73
2023/12/04 01:49:22;;;;;;;10.85;4.32;;;7.00;94.40;;;;;;7382507;19;20054;-72
2023/12/04 01:51:51;;;;;;;9.55;3.90;;;7.10;94.30;;;;;;7404864;19;20015;-73
2023/12/04 01:54:20;;;;;;;8.43;4.18;;;7.00;94.20;;;;;;7383627;19;20009;-74
2023/12/04 01:56:52;;;;;;;5.88;3.45;;;7.10;94.30;;;;;;7381690;19;20014;-73
2023/12/04 01:59:20;;;;;;;;;;;7.10;94.50;;;;;;7383360;19;20027;-73
2023/12/04 02:01:50;;;;;;;7.32;3.40;;;7.10;94.20;;;;;;7379783;19;19911;-73
2023/12/04 02:04:19;;;;;;;11.98;4.07;;;7.10;94.20;;;;;;7380749;19;20055;-74
2023/12/04 02:06:47;;;;;;;8.52;3.63;;;7.00;94.20;;;;;;7406077;19;20074;-74
2023/12/04 02:09:16;;;;;;;13.68;4.65;;;7.00;94.20;;;;;;7379581;19;20394;-73
2023/12/04 02:11:45;;;;;;;7.75;4.07;;;7.10;94.50;;;;;;7380277;19;20058;-73
2023/12/04 02:14:16;;;;;;;8.40;3.92;;;7.10;94.50;;;;;;7379678;19;20047;-73
2023/12/04 02:16:45;;;;;;;;;;;7.10;94.60;;;;;;7384545;19;20011;-73
2023/12/04 02:19:15;;;;;;;8.52;4.22;;;7.20;94.50;;;;;;7381050;19;19920;-73
2023/12/04 02:21:43;;;;;;;10.75;4.47;;;7.10;94.20;;;;;;7403208;19;20082;-73
2023/12/04 02:24:15;;;;;;;10.60;3.70;;;7.10;94.30;;;;;;7381663;19;20340;-73
2023/12/04 02:26:47;;;;;;;;;;;7.20;94.40;;;;;;7379078;19;20066;-73
2023/12/04 02:29:22;;;;;;;8.98;4.13;;;7.10;94.30;;;;;;7381806;19;19903;-72
2023/12/04 02:31:54;;;;;;;12.75;3.65;;;7.10;94.30;;;;;;7380793;19;20011;-72
2023/12/04 02:34:23;;;;;;;8.50;4.10;;;7.20;94.50;;;;;;7380195;19;20009;-73
2023/12/04 02:36:54;;;;;;;8.80;3.92;;;7.20;94.40;;;;;;7400851;19;20089;-73
2023/12/04 02:39:25;;;;;;;6.30;3.55;;;7.20;94.40;;;;;;7379321;19;20015;-73
2023/12/04 02:41:54;;;;;;;;;;;7.20;94.40;;;;;;7380586;19;20074;-72
2023/12/04 02:44:22;;;;;;;6.70;3.35;;;7.20;94.70;;;;;;7380548;19;19924;-73
2023/12/04 02:46:51;;;;;;;7.38;3.97;;;7.20;94.80;;;;;;7379916;19;20422;-73
2023/12/04 02:49:19;;;;;;;11.55;4.00;;;7.10;94.50;;;;;;7380062;19;20006;-72
2023/12/04 02:51:48;;;;;;;9.00;4.18;;;7.20;94.60;;;;;;7401034;19;20020;-73
2023/12/04 02:54:17;;;;;;;6.05;3.20;;;7.20;94.50;;;;;;7379100;19;20026;-74
2023/12/04 02:56:48;;;;;;;8.82;4.28;;;7.20;94.70;;;;;;7378933;19;20031;-73
2023/12/04 02:59:17;;;;;;;7.93;3.55;;;7.20;95.00;;;;;;7379243;19;20003;-73
2023/12/04 03:01:45;;;;;;;9.43;3.75;;;7.30;95.50;;;;;;7380158;19;20057;-73
2023/12/04 03:04:14;;;;;;;9.48;4.30;;;7.30;95.80;;;;;;7379397;19;20000;-72
2023/12/04 03:06:43;;;;;;;9.48;4.30;;;7.30;96.00;;;;;;7401310;19;20011;-72
2023/12/04 03:09:11;;;;;;;13.85;3.80;;;7.30;96.20;;;;;;7377111;19;20022;-72
2023/12/04 03:11:42;;;;;;;7.35;3.85;;;7.30;96.20;;;;;;7381100;19;20019;-73
2023/12/04 03:14:14;;;;;;;9.43;3.85;;;7.20;96.00;;;;;;7383916;19;20010;-73
2023/12/04 03:16:42;;;;;;;;;;;7.30;96.00;;;;;;7385601;19;20007;-73
2023/12/04 03:19:11;;;;;;;8.90;3.30;;;7.30;96.20;;;;;;7385723;19;19919;-73
2023/12/04 03:21:39;;;;;;;6.03;3.47;;;7.30;96.40;;;;;;7405627;19;20019;-73
2023/12/04 03:24:08;;;;;;;6.68;3.60;;;7.30;96.30;;;;;;7387169;19;20059;-73
2023/12/04 03:26:38;;;;;;;7.97;3.40;;;7.30;96.30;;;;;;7385612;19;20011;-73
2023/12/04 03:29:06;;;;;;;8.98;4.38;;;7.30;96.50;;;;;;7389306;19;20027;-72
2023/12/04 03:31:38;;;;;;;6.57;3.35;;;7.30;96.60;;;;;;7388954;19;20066;-73
2023/12/04 03:34:06;;;;;;;7.53;3.35;;;7.20;96.60;;;;;;7386438;19;20102;-73
2023/12/04 03:36:35;;;;;;;9.68;3.63;;;7.30;97.00;;;;;;7407973;19;20070;-73
2023/12/04 03:39:04;;;;;;;5.68;3.25;;;7.30;97.30;;;;;;7386657;19;20010;-73
2023/12/04 03:41:32;;;;;;;7.18;3.53;;;7.30;97.50;;;;;;7386656;19;20036;-73
2023/12/04 03:44:01;;;;;;;6.65;4.10;;;7.30;97.40;;;;;;7385868;19;20010;-73
2023/12/04 03:46:30;;;;;;;5.25;3.15;;;7.30;97.60;;;;;;7385869;19;20425;-73
2023/12/04 03:49:02;;;;;;;6.82;3.60;;;7.30;97.90;;;;;;7387975;19;20028;-72
2023/12/04 03:51:30;;;;;;;10.00;4.30;;;7.40;98.30;;;;;;7407857;19;20010;-72
2023/12/04 03:53:59;;;;;;;5.75;3.53;;;7.30;99.00;;;;;;7384004;19;20013;-72
2023/12/04 03:56:28;;;;;;;10.27;4.35;;;7.30;99.90;;;;;;7385536;19;20006;-73
2023/12/04 03:58:56;;;;;;;8.02;3.88;;;7.30;99.90;;;;;;7384968;19;20245;-73
2023/12/04 04:01:25;;;;;;;7.80;3.70;;;7.30;99.90;;;;;;7385980;19;20075;-72
2023/12/04 04:03:54;;;;;;;14.77;3.63;;;7.20;99.90;;;;;;7400392;19;20035;-73
2023/12/04 04:06:25;;;;;;;9.48;3.90;;;7.20;99.90;;;;;;7407394;19;20288;-73
2023/12/04 04:08:54;;;;;;;8.18;4.00;;;7.20;99.90;;;;;;7383118;19;20359;-74
2023/12/04 04:11:23;;;;;;;7.30;3.75;;;7.20;99.90;;;;;;7383937;19;20010;-73
2023/12/04 04:13:52;;;;;;;6.85;4.05;;;7.20;99.90;;;;;;7385302;19;20007;-72
2023/12/04 04:16:20;;;;;;;7.13;3.70;;;7.20;99.90;;;;;;7382991;19;20074;-72
2023/12/04 04:18:49;;;;;;;6.63;4.03;;;7.10;99.90;;;;;;7407629;19;20493;-73
2023/12/04 04:21:18;;;;;;;6.60;3.72;;;7.20;99.90;;;;;;7385907;19;20007;-73
2023/12/04 04:23:49;;;;;;;8.95;4.53;;;7.10;99.90;;;;;;7383516;19;20048;-73
2023/12/04 04:26:18;;;;;;;8.77;4.57;;;7.10;99.90;;;;;;7383527;19;20255;-74
2023/12/04 04:28:46;;;;;;;16.17;3.90;;;7.10;99.90;;;;;;7384974;19;20010;-74
2023/12/04 04:31:15;;;;;;;9.02;3.70;;;7.10;99.90;;;;;;7383199;19;20011;-73
2023/12/04 04:33:44;;;;;;;11.88;4.45;;;7.00;99.90;;;;;;7404416;19;20295;-73
2023/12/04 04:36:14;;;;;;;8.07;3.42;;;7.00;99.90;;;;;;7385565;19;20021;-72
2023/12/04 04:38:43;;;;;;;7.85;4.68;;;7.00;99.90;;;;;;7382788;19;20159;-73
2023/12/04 04:41:18;;;;;;;8.52;4.20;;;7.00;99.90;;;;;;7384875;19;20757;-72
2023/12/04 04:43:47;;;;;;;7.03;4.00;;;7.00;99.90;;;;;;7383825;19;20023;-72
2023/12/04 04:46:16;;;;;;;10.43;4.50;;;7.10;99.90;;;;;;7383394;19;20110;-72
2023/12/04 04:48:44;;;;;;;12.73;4.07;;;7.10;99.90;;;;;;7406945;19;20070;-72
2023/12/04 04:51:13;;;;;;;9.90;4.22;;;7.10;99.90;;;;;;7383322;19;20094;-73
2023/12/04 04:53:42;;;;;;;7.35;4.57;;;7.10;99.90;;;;;;7381662;19;20070;-72
2023/12/04 04:56:12;;;;;;;7.65;4.15;;;7.10;99.90;;;;;;7382508;19;20074;-73
2023/12/04 04:58:43;;;;;;;9.13;4.10;;;7.10;99.90;;;;;;7383005;19;20002;-73
2023/12/04 05:01:12;;;;;;;8.73;4.80;;;7.00;99.90;;;;;;7384393;19;20339;-73
2023/12/04 05:03:41;;;;;;;8.73;4.10;;;7.10;99.90;;;;;;7404736;19;20260;-74
2023/12/04 05:06:10;;;;;;;8.88;4.53;;;7.00;99.90;;;;;;7385003;19;20043;-73
2023/12/04 05:08:39;;;;;;;8.00;4.03;;;7.00;99.90;;;;;;7380592;19;20349;-73
2023/12/04 05:11:08;;;;;;;8.75;4.55;;;7.00;99.90;;;;;;7383676;19;20087;-73
2023/12/04 05:13:36;;;;;;;10.15;4.50;;;7.00;99.90;;;;;;7383477;19;20010;-74
2023/12/04 05:16:09;;;;;;;10.18;4.30;;;7.00;99.90;;;;;;7384501;19;20078;-73
2023/12/04 05:18:37;;;;;;;7.15;4.15;;;6.90;99.90;;;;;;7407082;19;20350;-74
2023/12/04 05:21:10;;;;;;;7.85;4.45;;;7.00;99.90;;;;;;7383302;19;20070;-74
2023/12/04 05:23:39;;;;;;;10.90;5.10;;;7.00;99.90;;;;;;7382246;19;20107;-73
2023/12/04 05:26:09;;;;;;;11.00;5.18;;;7.00;99.90;;;;;;7382680;19;20397;-73
2023/12/04 05:28:38;;;;;;;6.97;3.97;;;7.00;99.90;;;;;;7381325;19;20063;-73
2023/12/04 05:31:09;;;;;;;9.02;4.68;;;7.00;99.90;;;;;;7383931;19;20048;-73
2023/12/04 05:33:38;;;;;;;11.02;4.75;;;7.00;99.90;;;;;;7403706;19;20019;-73
2023/12/04 05:36:08;;;;;;;10.00;5.15;;;7.00;99.90;;;;;;7386925;19;20017;-73
2023/12/04 05:38:36;;;;;;;14.73;5.15;;;7.00;99.90;;;;;;7386613;19;20401;-73
2023/12/04 05:41:06;;;;;;;8.55;5.03;;;7.00;99.90;;;;;;7387011;19;20011;-73
2023/12/04 05:43:34;;;;;;;10.15;4.35;;;7.00;99.90;;;;;;7389461;19;20027;-74
2023/12/04 05:46:03;;;;;;;10.40;4.53;;;7.00;99.90;;;;;;7386629;19;20275;-73
2023/12/04 05:48:34;;;;;;;8.80;4.32;;;7.00;99.90;;;;;;7403482;19;20023;-73
2023/12/04 05:51:03;;;;;;;8.90;4.68;;;7.00;99.90;;;;;;7381946;19;20424;-73
2023/12/04 05:53:31;;;;;;;12.35;5.00;;;7.00;99.90;;;;;;7380891;19;20074;-73
2023/12/04 05:56:00;;;;;;;11.60;4.90;;;7.00;99.90;;;;;;7380774;19;20066;-73
2023/12/04 05:58:29;;;;;;;8.35;4.43;;;7.00;99.90;;;;;;7380960;19;20098;-73
2023/12/04 06:00:57;;;;;;;9.65;5.22;;;7.00;99.90;;;;;;7379688;19;20003;-74
2023/12/04 06:03:26;;;;;;;9.70;4.45;;;7.00;99.90;;;;;;7403707;19;20017;-74
2023/12/04 06:05:57;;;;;;;7.72;4.30;;;7.00;99.90;;;;;;7378455;19;20007;-74
2023/12/04 06:08:26;;;;;;;;;;;7.00;99.90;;;;;;7379923;19;20060;-73
2023/12/04 06:10:54;;;;;;;8.38;4.10;;;7.00;99.90;;;;;;7379860;19;20248;-73
2023/12/04 06:13:23;;;;;;;11.90;5.22;;;7.00;99.90;;;;;;7380451;19;20082;-73
2023/12/04 06:15:52;;;;;;;7.60;4.47;;;7.00;99.90;;;;;;7401528;19;20280;-73
2023/12/04 06:18:21;;;;;;;9.45;4.70;;;7.00;99.90;;;;;;7381071;19;20007;-73
2023/12/04 06:20:49;;;;;;;9.77;5.40;;;7.00;99.90;;;;;;7379187;19;20081;-73
2023/12/04 06:23:21;;;;;;;10.05;5.40;;;7.10;99.90;;;;;;7380918;19;20094;-73
2023/12/04 06:25:51;;;;;;;10.68;5.00;;;7.10;99.90;;;;;;7379544;19;20010;-72
2023/12/04 06:28:20;;;;;;;10.57;5.18;;;7.10;99.90;;;;;;7380510;19;20472;-73
2023/12/04 06:30:49;;;;;;;10.60;4.90;;;7.20;99.90;;;;;;7400916;19;20015;-73
2023/12/04 06:33:20;;;;;;;10.35;4.78;;;7.10;99.90;;;;;;7382995;19;20006;-73
2023/12/04 06:35:49;;;;;;;9.47;5.37;;;7.20;99.90;;;;;;7378522;19;20027;-73
2023/12/04 06:38:27;;;;;;;6.50;4.22;;;7.20;99.90;;;;;;7379822;19;20256;-73
2023/12/04 06:40:56;;;;;;;14.30;4.63;;;7.20;99.90;;;;;;7378979;19;20003;-72
2023/12/04 06:43:25;;;;;;;8.07;4.43;;;7.20;99.90;;;;;;7383654;19;20041;-73
2023/12/04 06:45:56;;;;;;;10.63;5.03;;;7.20;99.90;;;;;;7391402;19;20284;-73
2023/12/04 06:48:26;;;;;;;11.48;4.63;;;7.20;99.90;;;;;;7400628;19;20014;-73
2023/12/04 06:50:54;;;;;;;11.85;4.25;;;7.20;99.90;;;;;;7377931;19;20323;-73
2023/12/04 06:53:26;;;;;;;8.90;4.05;;;7.20;99.90;;;;;;7379247;19;20007;-73
2023/12/04 06:55:54;;;;;;;70.13;6.90;;;7.20;99.90;;;;;;7378860;19;20127;-73
2023/12/04 06:58:23;;;;;;;7.70;4.22;;;7.20;99.90;;;;;;7376522;19;20082;-73
2023/12/04 07:00:53;;;;;;;11.07;4.50;;;7.20;99.90;;;;;;7399558;19;20009;-74
2023/12/04 07:03:21;;;;;;;10.65;5.68;;;7.20;99.90;;;;;;7379626;19;20040;-73
2023/12/04 07:05:50;;;;;;;18.10;4.22;;;7.20;99.90;;;;;;7379023;19;20010;-73
2023/12/04 07:08:19;;;;;;;13.50;4.80;;;7.30;99.90;;;;;;7377150;19;20010;-73
2023/12/04 07:10:50;;;;;;;6.57;4.40;;;7.30;99.90;;;;;;7377551;19;19999;-73
2023/12/04 07:13:19;;;;;;;8.13;4.35;;;7.30;99.90;;;;;;7381105;19;20027;-73
2023/12/04 07:15:47;;;;;;;8.65;4.80;;;7.30;99.90;;;;;;7400677;19;20006;-74
2023/12/04 07:18:16;;;;;;;5.05;3.35;;;7.30;99.90;;;;;;7378982;19;20075;-73
2023/12/04 07:20:45;;;;;;;8.43;4.20;;;7.30;99.90;;;;;;7379076;19;20023;-73
2023/12/04 07:23:13;;;;;;;7.47;4.30;;;7.40;99.90;;;;;;7379994;19;20006;-73
2023/12/04 07:25:46;;;;;;;9.25;4.30;;;7.30;99.90;;;;;;7380118;19;20007;-73
2023/12/04 07:28:17;;;;;;;8.80;4.78;;;7.30;99.90;;;;;;7380118;19;19988;-72
2023/12/04 07:30:46;;;;;;;6.90;4.38;;;7.40;99.90;;;;;;7402726;19;20374;-73
2023/12/04 07:33:14;;;;;;;25.85;5.22;;;7.40;99.90;;;;;;7378840;19;20015;-73
2023/12/04 07:35:43;;;;;;;8.02;3.80;;;7.40;99.90;;;;;;7377225;19;20107;-73
2023/12/04 07:38:12;;;;;;;7.65;3.72;;;7.40;99.90;;;;;;7379511;19;20342;-72
2023/12/04 07:40:41;;;;;;;10.18;4.60;;;7.30;99.90;;;;;;7378095;19;19998;-72
2023/12/04 07:43:09;;;;;;;9.93;4.68;;;7.40;99.90;;;;;;7380129;19;20286;-73
2023/12/04 07:45:40;;;;;;;9.45;4.03;;;7.40;99.90;;;;;;7400561;19;20022;-74
2023/12/04 07:48:09;;;;;;;6.82;3.95;;;7.40;99.90;;;;;;7376060;19;20011;-73
2023/12/04 07:50:38;;;;;;;6.30;3.95;;;7.40;99.90;;;;;;7377955;19;20255;-73
2023/12/04 07:53:09;;;;;;;9.05;4.45;;;7.50;99.90;;;;;;7377159;19;20010;-74
2023/12/04 07:55:38;;;;;;;7.57;3.85;;;7.50;99.90;;;;;;7385438;19;20358;-73
2023/12/04 07:58:06;;;;;;;16.27;4.80;;;7.50;99.90;;;;;;7386218;19;20018;-73
2023/12/04 08:00:35;;;;;;;14.30;5.30;;;7.50;99.90;;;;;;7408419;19;20023;-74
2023/12/04 08:03:06;;;;;;;86.55;11.80;;;7.50;99.90;;;;;;7385857;19;20692;-74
2023/12/04 08:05:35;;;;;;;;;;;7.50;99.90;;;;;;7388782;19;20393;-75
2023/12/04 08:08:04;;;;;;;150.55;11.70;;;7.50;99.90;;;;;;7376542;19;19923;-73
2023/12/04 08:10:32;;;;;;;22.17;6.32;;;7.60;99.90;;;;;;7383803;19;20332;-75
2023/12/04 08:13:10;;;;;;;1999.90;174.35;;;7.60;99.90;;;;;;7390406;19;20010;-79
2023/12/04 08:15:38;;;;;;;1030.53;53.22;;;7.60;99.90;;;;;;7409319;19;20082;-77
2023/12/04 08:18:09;;;;;;;522.17;29.65;;;7.60;99.90;;;;;;7386064;19;20015;-78
2023/12/04 08:20:38;;;;;;;39.58;9.82;;;7.60;99.90;;;;;;7388094;19;20010;-78
2023/12/04 08:23:18;;;;;;;310.02;20.05;;;7.60;99.90;;;;;;7387927;19;20119;-81
2023/12/04 08:25:47;;;;;;;179.02;13.95;;;7.60;99.90;;;;;;7387149;19;20155;-78
2023/12/04 08:28:15;;;;;;;1124.35;61.85;;;7.70;99.90;;;;;;7386366;19;20157;-79
2023/12/04 08:30:44;;;;;;;414.60;23.25;;;7.60;99.90;;;;;;7409181;19;20291;-81
2023/12/04 08:33:17;;;;;;;133.38;11.40;;;7.60;99.90;;;;;;7389489;19;20256;-81
2023/12/04 08:35:47;;;;;;;127.32;10.98;;;7.60;99.90;;;;;;7384918;19;20030;-75
2023/12/04 08:38:19;;;;;;;90.45;8.38;;;7.60;99.90;;;;;;7386052;19;20058;-78
2023/12/04 08:44:11;;;;;;;15.70;5.22;;;7.70;99.90;;;;;;7384898;19;20025;-78
2023/12/04 08:46:48;;;;;;;11.63;5.43;;;7.70;99.90;;;;;;7385264;19;20465;-78
2023/12/04 08:49:19;;;;;;;8.05;4.40;;;7.70;99.90;;;;;;7388060;19;20134;-77
2023/12/04 08:51:48;;;;;;;39.10;5.53;;;7.70;99.90;;;;;;7407077;19;20031;-79
2023/12/04 08:54:19;;;;;;;12.45;4.82;;;7.70;99.90;;;;;;7386597;19;20033;-80
2023/12/04 08:56:50;;;;;;;40.10;7.18;;;7.70;99.90;;;;;;7384017;19;19998;-78
2023/12/04 08:59:26;;;;;;;8.15;4.53;;;7.80;99.90;;;;;;7383244;19;20002;-79
2023/12/04 09:01:57;;;;;;;13.35;5.75;;;7.80;99.90;;;;;;7385650;19;20031;-80
2023/12/04 09:04:40;;;;;;;8.73;5.07;;;7.90;99.90;;;;;;7388106;19;20374;-80
2023/12/04 09:07:09;;;;;;;11.32;4.90;;;7.90;99.90;;;;;;7390049;19;20003;-75
2023/12/04 09:09:39;;;;;;;7.53;4.05;;;7.90;99.90;;;;;;7404094;19;20011;-76
2023/12/04 09:12:09;;;;;;;9.88;4.32;;;7.90;99.90;;;;;;7385840;19;20007;-74
2023/12/04 09:14:37;;;;;;;10.85;4.50;;;7.90;99.90;;;;;;7377073;19;20111;-75
2023/12/04 09:17:07;;;;;;;8.00;4.50;;;8.00;99.90;;;;;;7382625;19;20417;-75
2023/12/04 09:19:38;;;;;;;12.02;4.72;;;8.00;99.90;;;;;;7380286;19;20031;-77
2023/12/04 09:22:08;;;;;;;12.35;6.95;;;8.00;99.90;;;;;;7383509;19;20010;-76
2023/12/04 09:24:46;;;;;;;9.60;4.28;;;8.00;99.90;;;;;;7408265;19;20106;-79
2023/12/04 09:27:14;;;;;;;10.27;4.80;;;8.00;99.90;;;;;;7387609;19;20027;-80
2023/12/04 09:29:45;;;;;;;774.33;54.00;;;8.00;99.90;;;;;;7387562;19;20022;-79
2023/12/04 09:32:50;;;;;;;7.20;4.20;;;8.00;99.90;;;;;;7389971;19;20007;-87
2023/12/04 09:35:21;;;;;;;13.80;3.92;;;8.00;99.90;;;;;;7381515;19;20011;-77
2023/12/04 09:41:10;;;;;;;10.20;4.35;;;8.10;99.90;;;;;;7413927;19;20029;-81
2023/12/04 09:43:39;;;;;;;7.75;4.07;;;8.00;99.90;;;;;;7390239;19;20006;-77
2023/12/04 09:46:08;;;;;;;8.52;4.38;;;8.10;99.90;;;;;;7385417;19;20462;-78
2023/12/04 09:48:49;;;;;;;8.68;3.83;;;8.10;99.90;;;;;;7405845;19;20332;-78
2023/12/04 09:51:21;;;;;;;14.63;4.22;;;8.00;99.90;;;;;;7381886;19;20159;-79
2023/12/04 09:54:01;;;;;;;195.82;12.27;;;8.10;99.90;;;;;;7386350;19;20026;-77
2023/12/04 09:56:30;;;;;;;6.57;3.80;;;8.10;99.90;;;;;;7384774;19;20063;-79
2023/12/04 09:59:03;;;;;;;10.73;4.20;;;8.10;99.90;;;;;;7382772;19;20011;-82
2023/12/04 10:01:47;;;;;;;8.65;4.68;;;8.10;99.90;;;;;;7386158;19;20019;-81
2023/12/04 10:04:17;;;;;;;11.77;4.47;;;8.10;99.90;;;;;;7384110;19;20004;-79
2023/12/04 10:06:52;;;;;;;9.23;4.00;;;8.20;99.90;;;;;;7408206;19;20039;-80
2023/12/04 10:09:32;;;;;;;44.80;5.25;;;8.20;99.90;;;;;;7386158;19;20389;-81
2023/12/04 10:18:47;;;;;;;17.52;5.25;;;8.30;99.90;;;;;;7418315;19;20006;-83
2023/12/04 10:21:16;;;;;;;12.63;5.05;;;8.30;99.90;;;;;;7393329;19;20039;-83
2023/12/04 10:23:52;;;;;;;10.18;5.38;;;8.40;99.90;;;;;;7387289;19;20043;-81
2023/12/04 10:26:36;;;;;;;14.70;5.72;;;8.40;99.90;;;;;;7403937;19;20034;-81
2023/12/04 10:29:21;;;;;;;;;;;;;;;;;;;;;
2023/12/04 10:40:47;;;;;;;9.93;5.18;;;8.60;99.90;;;;;;7380108;19;20078;-79
2023/12/04 10:43:23;;;;;;;10.05;5.13;;;8.60;99.90;;;;;;7385226;19;20133;-81
2023/12/04 10:46:00;;;;;;;14.98;6.25;;;8.60;99.90;;;;;;7406589;19;20289;-80
2023/12/04 10:51:46;;;;;;;9.77;5.65;;;8.70;99.90;;;;;;7411384;19;20444;-81
2023/12/04 10:54:14;;;;;;;10.43;4.63;;;8.70;99.90;;;;;;7378756;19;20012;-76
2023/12/04 10:56:47;;;;;;;14.65;5.20;;;8.90;99.90;;;;;;7376312;19;20086;-75
2023/12/04 10:59:21;;;;;;;10.00;5.13;;;8.90;99.90;;;;;;7378341;19;20031;-74
2023/12/04 11:01:51;;;;;;;11.95;5.55;;;9.00;99.90;;;;;;7379622;19;20106;-75
2023/12/04 11:04:23;;;;;;;11.25;4.93;;;9.00;99.90;;;;;;7380278;19;20076;-75
2023/12/04 11:06:55;;;;;;;10.27;4.68;;;9.10;99.90;;;;;;7403258;19;20013;-74
2023/12/04 11:09:26;;;;;;;10.77;5.00;;;9.10;99.90;;;;;;7377339;19;20009;-75
2023/12/04 11:12:02;;;;;;;7.78;4.28;;;9.10;99.90;;;;;;7377787;19;20007;-72
2023/12/04 11:14:36;;;;;;;8.85;5.13;;;9.20;99.90;;;;;;7382479;19;20251;-72
2023/12/04 11:17:11;;;;;;;11.00;4.93;;;9.20;99.90;;;;;;7378985;19;20058;-73
2023/12/04 11:19:46;;;;;;;19.38;5.78;;;9.30;99.90;;;;;;7380823;19;20056;-73
2023/12/04 11:22:19;;;;;;;14.90;4.70;;;9.30;99.90;;;;;;7381777;19;19996;-73
2023/12/04 11:24:50;;;;;;;85.50;8.25;;;9.40;99.90;;;;;;7399939;19;20006;-72
2023/12/04 11:27:22;;;;;;;14.77;4.53;;;9.50;99.90;;;;;;7380373;19;20214;-74
2023/12/04 11:29:52;;;;;;;6.28;3.72;;;9.60;99.90;;;;;;7379169;19;20362;-74
2023/12/04 11:32:21;;;;;;;7.15;3.80;;;9.60;99.90;;;;;;7379460;19;20019;-76
2023/12/04 11:34:54;;;;;;;4.72;2.90;;;9.60;99.90;;;;;;7378986;19;20007;-75
2023/12/04 11:37:36;;;;;;;5.35;3.08;;;9.60;99.90;;;;;;7378023;19;20065;-81
2023/12/04 11:40:07;;;;;;;6.75;2.92;;;9.70;99.90;;;;;;7380508;19;20007;-78
2023/12/04 11:42:39;;;;;;;3.88;2.33;;;9.60;99.90;;;;;;7403352;19;20006;-77
2023/12/04 11:45:08;;;;;;;7.55;2.83;;;9.70;99.90;;;;;;7386439;19;20088;-77
2023/12/04 11:47:53;;;;;;;6.07;2.90;;;9.70;99.90;;;;;;7388458;19;20010;-77
2023/12/04 11:50:26;;;;;;;4.35;2.38;;;9.80;99.90;;;;;;7396099;19;20200;-81
2023/12/04 11:55:42;;;;;;;7.30;2.38;;;9.80;99.90;;;;;;7391888;19;20099;-79
2023/12/04 11:58:15;;;;;;;3.25;1.85;;;9.90;99.90;;;;;;7383670;19;20244;-80
2023/12/04 12:00:46;;;;;;;6.20;2.70;;;9.80;99.90;;;;;;7409113;19;20225;-81
2023/12/04 12:03:17;;;;;;;3.78;2.63;;;9.70;99.90;;;;;;7386503;19;20010;-82
2023/12/04 12:05:46;;;;;;;;;;;9.80;99.90;;;;;;7389783;19;20010;-82
2023/12/04 12:08:30;;;;;;;5.70;2.90;;;9.90;99.90;;;;;;7385249;19;19918;-82
2023/12/04 12:14:34;;;;;;;6.53;3.03;;;9.90;99.90;;;;;;7403296;19;20029;-81
2023/12/04 12:17:20;;;;;;;6.50;2.85;;;9.90;99.90;;;;;;7387131;19;20313;-82
2023/12/04 12:19:59;;;;;;;;;;;;;;;;;;;;;
2023/12/04 12:22:57;;;;;;;9.48;2.78;;;9.90;99.90;;;;;;7389246;19;20006;-83
2023/12/04 12:25:26;;;;;;;4.57;2.90;;;9.90;99.90;;;;;;7382666;19;20011;-76
2023/12/04 12:27:55;;;;;;;13.45;4.47;;;9.90;99.90;;;;;;7382200;19;20062;-75
2023/12/04 12:30:31;;;;;;;4.88;3.00;;;9.90;99.90;;;;;;7401750;19;20422;-77
2023/12/04 12:33:00;;;;;;;10.48;2.88;;;10.00;99.90;;;;;;7383758;19;19998;-79
2023/12/04 12:35:28;;;;;;;4.72;3.15;;;10.00;99.90;;;;;;7383687;19;20362;-82
2023/12/04 12:37:58;;;;;;;7.05;3.00;;;10.00;99.90;;;;;;7382554;19;20010;-79
2023/12/04 12:40:31;;;;;;;13.98;3.72;;;10.10;99.90;;;;;;7383936;19;20032;-79
2023/12/04 12:43:10;;;;;;;13.15;3.30;;;10.10;99.90;;;;;;7384700;19;20009;-80
2023/12/04 12:46:12;;;;;;;6.72;2.90;;;10.10;99.90;;;;;;7406246;19;20014;-81
2023/12/04 12:48:40;;;;;;;5.35;3.15;;;10.10;99.90;;;;;;7390656;19;20047;-77
2023/12/04 12:51:11;;;;;;;10.55;3.28;;;10.10;99.90;;;;;;7382491;19;20062;-78
2023/12/04 12:53:41;;;;;;;12.18;3.17;;;10.10;99.90;;;;;;7382219;19;20231;-76
2023/12/04 12:56:11;;;;;;;4.95;2.50;;;10.10;99.90;;;;;;7379600;19;20059;-74
2023/12/04 12:58:39;;;;;;;8.02;2.63;;;10.10;99.90;;;;;;7380868;19;20069;-76
2023/12/04 13:01:15;;;;;;;5.10;2.55;;;10.10;99.90;;;;;;7384852;19;20018;-79
2023/12/04 13:03:47;;;;;;;4.97;2.38;;;10.10;99.90;;;;;;7421791;19;20010;-77
2023/12/04 13:06:17;;;;;;;6.22;2.25;;;10.10;99.90;;;;;;7394347;19;20026;-76
2023/12/04 13:08:46;;;;;;;4.93;2.55;;;9.90;99.90;;;;;;7395045;19;20003;-78
2023/12/04 13:17:09;;;;;;;6.68;2.38;;;10.10;99.90;;;;;;7328382;19;20014;-78
2023/12/04 13:19:37;;;;;;;6.55;2.55;;;10.10;99.90;;;;;;7390852;19;20011;-78
2023/12/04 13:22:07;;;;;;;3.67;2.22;;;10.10;99.90;;;;;;7383595;19;20015;-75
2023/12/04 13:24:36;;;;;;;3.75;2.30;;;10.10;99.90;;;;;;7399999;19;20017;-75
2023/12/04 13:27:05;;;;;;;2.75;2.00;;;10.10;99.90;;;;;;7380816;19;20397;-76
2023/12/04 13:29:33;;;;;;;4.95;2.50;;;10.00;99.90;;;;;;7381388;19;20005;-76
2023/12/04 13:32:05;;;;;;;4.47;2.25;;;10.10;99.90;;;;;;7381379;19;20046;-75
2023/12/04 13:34:34;;;;;;;5.05;2.30;;;10.10;99.90;;;;;;7381384;19;20003;-76
2023/12/04 13:37:03;;;;;;;6.25;2.25;;;10.00;99.90;;;;;;7381418;19;20067;-76
2023/12/04 13:45:28;;;;;;;10.85;2.83;;;10.20;99.90;;;;;;7382203;19;20014;-76
2023/12/04 13:54:34;;;;;;;3.85;2.47;;;10.20;99.90;;;;;;7380911;19;20070;-74
2023/12/04 13:57:04;;;;;;;11.75;2.83;;;10.20;99.90;;;;;;7381072;19;19998;-76
2023/12/04 13:59:34;;;;;;;8.68;3.25;;;10.20;99.90;;;;;;7380673;19;20010;-76
2023/12/04 14:02:07;;;;;;;7.68;3.20;;;10.20;99.90;;;;;;7380788;19;20007;-75
2023/12/04 14:04:35;;;;;;;9.00;3.63;;;10.20;99.90;;;;;;7379874;19;20282;-75
2023/12/04 14:07:05;;;;;;;10.55;3.53;;;10.30;99.90;;;;;;7383561;19;20015;-76